Mount Vernon, Arkansas
Current Conditions -  °F | °C
As of 1:58 PM on Wednesday 17 Dec 2014 (Local Time) from KLRF Reporting Station
Scattered Clouds Scattered Clouds  
Wind Chill:   Ceiling: Unl
Heat Index:   Visibility: 10mi
Dew Point: -2°   Wind: 3mph
Humidity: 62%   Direction: 360°N
Pressure: 30.27"   Gusts: NA
Location:  35.23°N, 92.12°W
Report Text: KLRF 171958Z AUTO 36003KT 10SM SCT100 05/M02 A3027 RMK AO2 SLP256 T00451023
Loading
Personal Weather Stations






























Interactive Weather Map New forecast layout! Learn more

10-Day Weather Forecast

Advertisements
Track Severe Weather on mobile